Time;durP1;ratioP1;P1;durP2;ratioP2;P2;SDS_P1;SDS_P2;PMS_P1;PMS_P2;Temp;Humidity;BMP_temperature;BMP_pressure;BME280_temperature;BME280_humidity;BME280_pressure;Samples;Min_cycle;Max_cycle;Signal;HPM_P1;HPM_P2
2023/10/18 00:02:16;;;;;;;11.43;8.55;;;8.70;99.90;;;;;;5032497;28;20486;-67
2023/10/18 00:04:44;;;;;;;10.82;8.07;;;8.70;99.90;;;;;;5034549;28;20053;-68
2023/10/18 00:07:12;;;;;;;10.30;7.40;;;8.60;99.90;;;;;;5025018;28;20097;-67
2023/10/18 00:09:56;;;;;;;10.73;8.07;;;8.60;99.90;;;;;;5033494;28;20096;-67
2023/10/18 00:12:22;;;;;;;11.02;8.02;;;8.60;99.90;;;;;;5034499;28;20187;-67
2023/10/18 00:14:51;;;;;;;11.70;7.78;;;8.60;99.90;;;;;;5034022;28;20032;-67
2023/10/18 00:17:16;;;;;;;10.77;8.50;;;8.60;99.90;;;;;;5034019;28;20033;-67
2023/10/18 00:19:43;;;;;;;8.95;7.60;;;8.60;99.90;;;;;;5033079;28;20033;-67
2023/10/18 00:22:09;;;;;;;11.00;7.82;;;8.50;99.90;;;;;;5034390;28;20018;-67
2023/10/18 00:24:37;;;;;;;11.20;7.85;;;8.50;99.90;;;;;;5033822;28;20466;-67
2023/10/18 00:27:03;;;;;;;8.77;7.72;;;8.50;99.90;;;;;;5033858;28;20013;-67
2023/10/18 00:29:29;;;;;;;11.35;7.95;;;8.50;99.90;;;;;;5034046;28;20498;-67
2023/10/18 00:31:55;;;;;;;10.40;7.72;;;8.50;99.90;;;;;;5029327;28;20030;-67
2023/10/18 00:34:20;;;;;;;11.43;8.27;;;8.50;99.90;;;;;;5033925;28;20075;-67
2023/10/18 00:36:46;;;;;;;11.85;8.82;;;8.50;99.90;;;;;;5033712;28;20436;-67
2023/10/18 00:39:27;;;;;;;13.75;9.48;;;8.50;99.90;;;;;;5029112;28;20029;-67
2023/10/18 00:41:54;;;;;;;11.07;8.35;;;8.40;99.90;;;;;;5025808;28;20027;-67
2023/10/18 00:44:21;;;;;;;11.43;8.52;;;8.40;99.90;;;;;;5026810;28;20037;-67
2023/10/18 00:46:50;;;;;;;8.57;6.85;;;8.40;99.90;;;;;;5026711;28;20553;-67
2023/10/18 00:49:16;;;;;;;9.93;7.85;;;8.40;99.90;;;;;;5022244;28;20029;-67
2023/10/18 00:51:46;;;;;;;10.27;7.78;;;8.40;99.90;;;;;;5022290;28;20026;-67
2023/10/18 00:54:12;;;;;;;11.25;7.38;;;8.40;99.90;;;;;;5033227;28;20018;-67
2023/10/18 00:56:45;;;;;;;11.05;7.82;;;8.30;99.90;;;;;;5033006;28;20029;-67
2023/10/18 00:59:26;;;;;;;10.95;8.27;;;8.30;99.90;;;;;;5032984;28;20125;-68
2023/10/18 01:01:58;;;;;;;10.90;8.68;;;8.30;99.90;;;;;;5033389;28;20018;-67
2023/10/18 01:04:26;;;;;;;10.32;7.75;;;8.30;99.90;;;;;;5032912;28;20084;-67
2023/10/18 01:06:51;;;;;;;10.98;8.00;;;8.30;99.90;;;;;;5032920;28;20385;-67
2023/10/18 01:09:18;;;;;;;11.90;8.60;;;8.30;99.90;;;;;;5030321;28;20778;-67
2023/10/18 01:11:46;;;;;;;10.40;8.55;;;8.20;99.90;;;;;;5022814;28;20029;-67
2023/10/18 01:14:17;;;;;;;11.05;9.07;;;8.20;99.90;;;;;;5032966;28;20021;-67
2023/10/18 01:16:44;;;;;;;10.48;6.90;;;8.20;99.90;;;;;;5032055;28;20013;-67
2023/10/18 01:19:11;;;;;;;10.95;8.00;;;8.10;99.90;;;;;;5032387;28;20022;-67
2023/10/18 01:21:37;;;;;;;9.75;7.38;;;8.20;99.90;;;;;;5032623;28;20013;-67
2023/10/18 01:24:04;;;;;;;10.50;7.78;;;8.10;99.90;;;;;;5032645;28;20025;-67
2023/10/18 01:26:37;;;;;;;8.27;6.85;;;8.10;99.90;;;;;;5030376;28;20017;-67
2023/10/18 01:29:04;;;;;;;9.65;6.90;;;8.20;99.90;;;;;;5032705;28;20018;-67
2023/10/18 01:31:29;;;;;;;9.55;6.97;;;8.10;99.90;;;;;;5025014;28;20036;-67
2023/10/18 01:33:55;;;;;;;9.75;7.03;;;8.10;99.90;;;;;;5032438;28;20029;-67
2023/10/18 01:36:22;;;;;;;9.68;7.43;;;8.10;99.90;;;;;;5032754;28;20488;-67
2023/10/18 01:38:49;;;;;;;10.52;7.55;;;8.10;99.90;;;;;;5028867;28;20029;-67
2023/10/18 01:41:25;;;;;;;10.25;6.85;;;8.10;99.90;;;;;;5022989;28;20075;-67
2023/10/18 01:43:51;;;;;;;10.10;6.93;;;8.10;99.90;;;;;;5031906;28;20021;-67
2023/10/18 01:46:17;;;;;;;9.98;7.60;;;8.10;99.90;;;;;;5021856;28;20032;-67
2023/10/18 01:48:50;;;;;;;11.20;6.82;;;8.10;99.90;;;;;;5032761;28;20030;-67
2023/10/18 01:51:16;;;;;;;10.40;7.35;;;8.10;99.90;;;;;;5029523;28;20041;-67
2023/10/18 01:53:43;;;;;;;9.63;7.53;;;8.00;99.90;;;;;;5032477;28;20060;-67
2023/10/18 01:56:11;;;;;;;9.90;7.40;;;8.00;99.90;;;;;;5032231;28;20029;-67
2023/10/18 01:58:38;;;;;;;11.13;7.57;;;8.00;99.90;;;;;;5032221;28;20045;-67
2023/10/18 02:01:10;;;;;;;10.77;7.10;;;8.00;99.90;;;;;;5032088;28;20532;-67
2023/10/18 02:03:44;;;;;;;9.93;7.45;;;8.00;99.90;;;;;;5031996;28;20028;-67
2023/10/18 02:06:13;;;;;;;10.18;7.90;;;8.00;99.90;;;;;;5031928;28;20057;-67
2023/10/18 02:08:40;;;;;;;10.53;7.73;;;7.90;99.90;;;;;;5032277;28;20112;-67
2023/10/18 02:11:07;;;;;;;10.07;6.97;;;7.90;99.90;;;;;;5031841;28;20075;-67
2023/10/18 02:13:33;;;;;;;11.65;7.85;;;7.90;99.90;;;;;;5031872;28;20025;-67
2023/10/18 02:15:58;;;;;;;9.52;6.47;;;7.90;99.90;;;;;;5031243;28;20017;-67
2023/10/18 02:18:26;;;;;;;8.93;6.93;;;7.90;99.90;;;;;;5032004;28;20036;-67
2023/10/18 02:20:52;;;;;;;8.23;6.22;;;7.90;99.90;;;;;;5017897;28;20429;-67
2023/10/18 02:23:21;;;;;;;8.55;5.50;;;7.90;99.90;;;;;;5031838;28;20048;-67
2023/10/18 02:25:47;;;;;;;9.27;6.32;;;7.90;99.90;;;;;;5028882;28;20068;-67
2023/10/18 02:28:27;;;;;;;8.40;6.25;;;7.90;99.90;;;;;;5031043;28;20437;-67
2023/10/18 02:31:07;;;;;;;8.95;6.65;;;7.90;99.90;;;;;;5031569;28;20021;-67
2023/10/18 02:33:42;;;;;;;11.77;8.00;;;7.90;99.90;;;;;;5031639;28;20072;-67
2023/10/18 02:36:12;;;;;;;10.82;7.55;;;7.80;99.90;;;;;;5026127;28;20676;-67
2023/10/18 02:38:38;;;;;;;11.77;8.43;;;7.80;99.90;;;;;;5030599;28;20374;-67
2023/10/18 02:41:15;;;;;;;9.80;7.22;;;7.80;99.90;;;;;;5031663;28;20026;-67
2023/10/18 02:43:45;;;;;;;11.73;8.27;;;7.80;99.90;;;;;;5031276;28;20051;-67
2023/10/18 02:46:12;;;;;;;9.13;7.15;;;7.70;99.90;;;;;;5031265;28;20029;-67
2023/10/18 02:48:40;;;;;;;11.00;7.72;;;7.70;99.90;;;;;;5031592;28;20095;-67
2023/10/18 02:51:06;;;;;;;11.93;8.95;;;7.70;99.90;;;;;;5022706;28;20017;-67
2023/10/18 02:53:37;;;;;;;9.85;7.75;;;7.70;99.90;;;;;;5022036;28;20018;-67
2023/10/18 02:56:06;;;;;;;12.25;7.72;;;7.60;99.90;;;;;;5021891;28;20385;-67
2023/10/18 02:58:33;;;;;;;9.85;6.95;;;7.60;99.90;;;;;;5020169;28;20113;-67
2023/10/18 03:01:05;;;;;;;12.40;8.15;;;7.60;99.90;;;;;;5025109;28;20022;-67
2023/10/18 03:03:31;;;;;;;10.20;7.00;;;7.60;99.90;;;;;;5012936;28;20018;-67
2023/10/18 03:05:59;;;;;;;11.50;8.10;;;7.60;99.90;;;;;;5021489;28;20025;-67
2023/10/18 03:08:24;;;;;;;11.75;7.43;;;7.60;99.90;;;;;;5029584;28;20101;-67
2023/10/18 03:10:51;;;;;;;10.93;8.13;;;7.60;99.90;;;;;;5026876;28;20108;-67
2023/10/18 03:13:18;;;;;;;10.63;7.70;;;7.60;99.90;;;;;;5030579;28;20022;-67
2023/10/18 03:16:18;;;;;;;11.48;7.85;;;7.60;99.90;;;;;;5025920;28;20026;-67
2023/10/18 03:18:37;;;;;;;10.98;8.07;;;7.60;99.90;;;;;;5027512;28;20032;-67
2023/10/18 03:21:06;;;;;;;11.75;8.15;;;7.50;99.90;;;;;;5029793;28;20022;-67
2023/10/18 03:23:33;;;;;;;11.13;8.00;;;7.60;99.90;;;;;;5029820;28;20029;-67
2023/10/18 03:26:08;;;;;;;10.60;8.05;;;7.50;99.90;;;;;;5028706;28;20072;-67
2023/10/18 03:28:34;;;;;;;12.13;8.07;;;7.50;99.90;;;;;;5028338;28;20108;-67
2023/10/18 03:31:05;;;;;;;12.48;8.43;;;7.50;99.90;;;;;;5028805;28;20024;-67
2023/10/18 03:33:32;;;;;;;12.60;8.63;;;7.50;99.90;;;;;;5048419;28;20026;-67
2023/10/18 03:36:06;;;;;;;12.75;8.82;;;7.50;99.90;;;;;;5033947;28;20045;-67
2023/10/18 03:38:39;;;;;;;10.00;7.43;;;7.50;99.90;;;;;;5033106;28;20021;-67
2023/10/18 03:41:08;;;;;;;13.15;8.82;;;7.50;99.90;;;;;;5033729;28;20432;-67
2023/10/18 03:43:36;;;;;;;13.02;9.55;;;7.40;99.90;;;;;;5033408;28;20071;-67
2023/10/18 03:46:13;;;;;;;11.40;8.20;;;7.50;99.90;;;;;;5033615;28;20091;-67
2023/10/18 03:48:47;;;;;;;12.82;9.10;;;7.40;99.90;;;;;;5033449;28;20539;-67
2023/10/18 03:51:18;;;;;;;12.85;9.10;;;7.40;99.90;;;;;;5030706;28;20544;-67
2023/10/18 03:53:43;;;;;;;14.32;9.93;;;7.40;99.90;;;;;;5033905;28;20029;-67
2023/10/18 03:56:13;;;;;;;13.90;8.75;;;7.40;99.90;;;;;;5032958;28;20469;-67
2023/10/18 03:58:42;;;;;;;13.73;9.00;;;7.40;99.90;;;;;;5028947;28;20049;-67
2023/10/18 04:01:12;;;;;;;12.73;8.60;;;7.30;99.90;;;;;;5032827;28;20497;-67
2023/10/18 04:03:39;;;;;;;11.60;9.18;;;7.30;99.90;;;;;;5031283;28;20036;-67
2023/10/18 04:06:08;;;;;;;13.85;9.20;;;7.30;99.90;;;;;;5031454;28;20017;-67
2023/10/18 04:08:34;;;;;;;13.30;9.35;;;7.30;99.90;;;;;;5033117;28;20022;-67
2023/10/18 04:11:00;;;;;;;11.23;8.20;;;7.30;99.90;;;;;;5033087;28;20020;-67
2023/10/18 04:13:31;;;;;;;13.05;8.75;;;7.30;99.90;;;;;;5033113;28;20466;-67
2023/10/18 04:15:59;;;;;;;13.40;9.65;;;7.30;99.90;;;;;;5046596;28;20021;-67
2023/10/18 04:18:29;;;;;;;12.98;8.57;;;7.30;99.90;;;;;;5032981;28;20484;-67
2023/10/18 04:21:02;;;;;;;13.93;8.60;;;7.30;99.90;;;;;;5045255;28;20237;-67
2023/10/18 04:23:27;;;;;;;12.27;9.13;;;7.30;99.90;;;;;;5033157;28;20359;-67
2023/10/18 04:26:12;;;;;;;11.32;8.52;;;7.20;99.90;;;;;;5030710;28;20033;-67
2023/10/18 04:28:38;;;;;;;10.25;8.30;;;7.20;99.90;;;;;;5032854;28;20014;-67
2023/10/18 04:31:08;;;;;;;12.85;8.82;;;7.30;99.90;;;;;;5032387;28;20022;-67
2023/10/18 04:33:49;;;;;;;10.65;7.72;;;7.20;99.90;;;;;;5032563;28;20496;-67
2023/10/18 04:36:15;;;;;;;12.50;8.57;;;7.20;99.90;;;;;;5032134;28;20028;-67
2023/10/18 04:38:44;;;;;;;12.35;9.20;;;7.20;99.90;;;;;;5032445;28;20024;-67
2023/10/18 04:43:51;;;;;;;13.30;8.27;;;7.20;99.90;;;;;;5030431;28;19905;-67
2023/10/18 04:46:22;;;;;;;11.70;8.95;;;7.20;99.90;;;;;;5029875;28;20043;-67
2023/10/18 04:51:26;;;;;;;13.82;9.55;;;7.10;99.90;;;;;;5033667;28;20063;-67
2023/10/18 04:53:54;;;;;;;13.13;8.27;;;7.10;99.90;;;;;;5021162;28;20025;-67
2023/10/18 04:56:19;;;;;;;14.15;9.25;;;7.10;99.90;;;;;;5033479;28;20030;-67
2023/10/18 04:58:45;;;;;;;13.55;9.48;;;7.10;99.90;;;;;;5020509;28;20037;-67
2023/10/18 05:01:13;;;;;;;11.80;8.25;;;7.10;99.90;;;;;;5032784;28;20393;-67
2023/10/18 05:03:44;;;;;;;12.30;9.23;;;7.20;99.90;;;;;;5020138;28;20025;-67
2023/10/18 05:06:11;;;;;;;12.65;8.80;;;7.10;99.90;;;;;;5033056;28;20025;-67
2023/10/18 05:08:37;;;;;;;11.57;8.32;;;7.10;99.90;;;;;;5032482;28;20013;-67
2023/10/18 05:13:48;;;;;;;11.68;8.55;;;7.10;99.90;;;;;;5021459;28;20036;-67
2023/10/18 05:16:16;;;;;;;12.95;9.32;;;7.10;99.90;;;;;;5017214;28;20014;-67
2023/10/18 05:18:44;;;;;;;13.73;8.77;;;7.10;99.90;;;;;;5024255;28;20112;-67
2023/10/18 05:21:20;;;;;;;11.95;8.32;;;7.10;99.90;;;;;;5029255;28;20101;-67
2023/10/18 05:23:46;;;;;;;13.05;9.23;;;7.10;99.90;;;;;;5033446;28;20032;-67
2023/10/18 05:26:17;;;;;;;14.82;8.02;;;7.10;99.90;;;;;;5031334;28;20029;-67
2023/10/18 05:28:53;;;;;;;12.13;7.50;;;7.10;99.90;;;;;;5032718;28;20057;-67
2023/10/18 05:31:44;;;;;;;10.02;7.70;;;7.10;99.90;;;;;;5011531;28;20148;-67
2023/10/18 05:34:19;;;;;;;13.25;8.93;;;7.10;99.90;;;;;;5016725;28;20014;-67
2023/10/18 05:39:27;;;;;;;10.88;7.97;;;7.10;99.90;;;;;;5025857;28;20028;-67
2023/10/18 05:41:59;;;;;;;12.68;8.60;;;7.10;99.90;;;;;;5026777;28;20524;-67
2023/10/18 05:44:27;;;;;;;12.10;8.55;;;7.00;99.90;;;;;;5027445;28;20465;-67
2023/10/18 05:46:53;;;;;;;13.88;9.40;;;7.00;99.90;;;;;;5028665;28;20470;-67
2023/10/18 05:49:25;;;;;;;14.38;8.05;;;7.10;99.90;;;;;;5017670;28;20030;-67
2023/10/18 05:51:51;;;;;;;11.02;8.02;;;7.00;99.90;;;;;;5024183;28;20034;-67
2023/10/18 05:54:24;;;;;;;11.32;8.07;;;7.00;99.90;;;;;;5032682;28;20029;-67
2023/10/18 05:56:50;;;;;;;9.90;7.47;;;7.10;99.90;;;;;;5031763;28;20025;-67
2023/10/18 06:01:51;;;;;;;10.93;7.68;;;7.10;99.90;;;;;;5026045;28;20049;-67
2023/10/18 06:07:13;;;;;;;10.60;6.95;;;7.10;99.90;;;;;;5021632;28;20063;-67
2023/10/18 06:09:46;;;;;;;8.88;6.90;;;7.10;99.90;;;;;;5032069;28;20493;-67
2023/10/18 06:12:22;;;;;;;11.63;7.47;;;7.10;99.90;;;;;;5032698;28;20025;-67
2023/10/18 06:14:52;;;;;;;11.75;7.10;;;7.10;99.90;;;;;;5012568;28;20022;-67
2023/10/18 06:17:26;;;;;;;11.60;7.97;;;7.10;99.90;;;;;;5023060;28;20029;-67
2023/10/18 06:19:52;;;;;;;11.98;8.25;;;7.10;99.90;;;;;;5030600;28;20485;-67
2023/10/18 06:22:28;;;;;;;11.30;7.93;;;7.10;99.90;;;;;;5031047;28;20025;-67
2023/10/18 06:24:57;;;;;;;11.25;6.60;;;7.10;99.90;;;;;;5019813;28;20020;-67
2023/10/18 06:27:23;;;;;;;9.77;7.22;;;7.10;99.90;;;;;;5031690;28;20049;-67
2023/10/18 06:29:54;;;;;;;10.07;7.55;;;7.10;99.90;;;;;;5031888;28;20017;-67
2023/10/18 06:32:25;;;;;;;10.32;7.72;;;7.10;99.90;;;;;;5031333;28;20086;-67
2023/10/18 06:34:56;;;;;;;12.25;7.13;;;7.10;99.90;;;;;;5030036;28;20025;-67
2023/10/18 06:37:22;;;;;;;8.85;6.80;;;7.10;99.90;;;;;;5030532;28;20029;-67
2023/10/18 06:39:51;;;;;;;9.98;7.80;;;7.10;99.90;;;;;;5028795;28;20140;-67
2023/10/18 06:42:17;;;;;;;10.20;7.20;;;7.10;99.90;;;;;;5021346;28;20026;-67
2023/10/18 06:44:43;;;;;;;12.00;8.80;;;7.10;99.90;;;;;;5023899;28;20028;-67
2023/10/18 06:47:13;;;;;;;10.55;7.43;;;7.20;99.90;;;;;;5028372;28;20021;-67
2023/10/18 06:49:42;;;;;;;14.05;8.52;;;7.20;99.90;;;;;;5028481;28;20504;-67
2023/10/18 06:52:09;;;;;;;11.27;7.72;;;7.20;99.90;;;;;;5031570;28;20631;-67
2023/10/18 06:54:38;;;;;;;9.75;7.28;;;7.20;99.90;;;;;;5027685;28;20429;-67
2023/10/18 06:57:20;;;;;;;11.68;8.38;;;7.20;99.90;;;;;;5022049;28;20017;-67
2023/10/18 06:59:47;;;;;;;9.93;7.45;;;7.20;99.90;;;;;;5027209;28;20072;-67
2023/10/18 07:02:14;;;;;;;11.32;8.10;;;7.20;99.90;;;;;;5031260;28;20022;-67
2023/10/18 07:04:50;;;;;;;11.30;8.05;;;7.20;99.90;;;;;;5031276;28;20095;-67
2023/10/18 07:07:20;;;;;;;10.15;7.50;;;7.20;99.90;;;;;;5031502;28;20102;-67
2023/10/18 07:09:49;;;;;;;12.30;8.05;;;7.20;99.90;;;;;;5031179;28;20027;-67
2023/10/18 07:12:17;;;;;;;10.52;8.27;;;7.20;99.90;;;;;;5022141;28;20104;-67
2023/10/18 07:14:43;;;;;;;13.30;8.73;;;7.30;99.90;;;;;;5033111;28;20624;-67
2023/10/18 07:17:13;;;;;;;10.25;7.70;;;7.30;99.90;;;;;;5028888;28;20065;-67
2023/10/18 07:19:48;;;;;;;10.35;7.57;;;7.30;99.90;;;;;;5029560;28;20507;-67
2023/10/18 07:22:18;;;;;;;10.77;7.80;;;7.30;99.90;;;;;;5039322;28;20028;-67
2023/10/18 07:24:47;;;;;;;;;;;7.40;99.90;;;;;;5033876;28;20014;-66
2023/10/18 07:27:15;;;;;;;10.32;8.02;;;7.30;99.90;;;;;;5049860;28;19905;-67
2023/10/18 07:29:46;;;;;;;11.05;8.18;;;7.30;99.90;;;;;;5028939;28;20021;-66
2023/10/18 07:32:15;;;;;;;10.77;7.70;;;7.30;99.90;;;;;;5037079;28;20105;-67
2023/10/18 07:34:42;;;;;;;11.95;8.63;;;7.40;99.90;;;;;;5034224;28;20026;-67
2023/10/18 07:37:17;;;;;;;12.85;8.10;;;7.40;99.90;;;;;;5030606;28;20480;-67
2023/10/18 07:39:48;;;;;;;11.80;7.85;;;7.50;99.90;;;;;;5032615;28;20026;-67
2023/10/18 07:42:14;;;;;;;11.70;8.23;;;7.50;99.90;;;;;;5033572;28;20053;-67
2023/10/18 07:44:43;;;;;;;8.98;6.60;;;7.50;99.90;;;;;;5029189;28;20122;-67
2023/10/18 07:47:17;;;;;;;11.05;7.35;;;7.60;99.90;;;;;;5031179;28;20022;-67
2023/10/18 07:49:45;;;;;;;10.43;7.90;;;7.60;99.90;;;;;;5030096;28;20013;-67
2023/10/18 07:52:11;;;;;;;8.90;6.22;;;7.60;99.90;;;;;;5017763;28;20064;-67
2023/10/18 07:54:37;;;;;;;11.93;7.43;;;7.70;99.90;;;;;;5038484;28;20118;-67
2023/10/18 07:57:03;;;;;;;13.30;7.55;;;7.80;99.90;;;;;;5037164;28;20041;-66
2023/10/18 07:59:30;;;;;;;9.75;7.22;;;7.80;99.90;;;;;;5029894;28;20034;-67
2023/10/18 08:04:43;;;;;;;11.32;7.30;;;7.80;99.90;;;;;;5023825;28;20602;-67
2023/10/18 08:07:11;;;;;;;12.95;7.57;;;7.90;99.90;;;;;;5036419;28;20030;-67
2023/10/18 08:09:39;;;;;;;9.93;7.07;;;7.90;99.90;;;;;;5024004;28;20107;-67
2023/10/18 08:12:06;;;;;;;11.35;6.75;;;8.00;99.90;;;;;;5026907;28;20040;-67
2023/10/18 08:14:33;;;;;;;8.38;6.47;;;8.00;99.90;;;;;;5035526;28;20026;-67
2023/10/18 08:17:08;;;;;;;10.38;7.15;;;8.00;99.90;;;;;;5029958;28;20025;-67
2023/10/18 08:19:43;;;;;;;11.73;7.32;;;8.10;99.90;;;;;;5032256;28;20025;-67
2023/10/18 08:24:35;;;;;;;8.20;5.57;;;8.20;99.90;;;;;;5033303;28;20103;-67
2023/10/18 08:27:10;;;;;;;10.68;6.03;;;8.20;99.90;;;;;;5033308;28;20018;-67
2023/10/18 08:29:36;;;;;;;7.40;5.40;;;8.30;99.90;;;;;;5032122;28;20482;-67
2023/10/18 08:32:15;;;;;;;8.05;5.88;;;8.40;99.90;;;;;;5031893;28;20056;-67
2023/10/18 08:34:44;;;;;;;7.25;5.28;;;8.40;99.90;;;;;;5038902;28;20103;-67
2023/10/18 08:37:13;;;;;;;9.20;6.40;;;8.50;99.90;;;;;;5029176;28;20475;-67
2023/10/18 08:39:55;;;;;;;9.02;6.15;;;8.50;99.90;;;;;;5034038;28;20086;-67
2023/10/18 08:42:39;;;;;;;8.90;5.57;;;8.60;99.90;;;;;;5028218;28;20125;-67
2023/10/18 08:45:07;;;;;;;8.65;5.93;;;8.70;99.90;;;;;;5031584;28;20500;-67
2023/10/18 08:47:46;;;;;;;6.93;4.95;;;8.80;99.90;;;;;;5030537;28;20040;-67
2023/10/18 08:50:12;;;;;;;7.43;5.28;;;8.90;99.90;;;;;;5030239;28;20040;-67
2023/10/18 08:52:47;;;;;;;6.70;4.88;;;9.00;99.90;;;;;;5034138;28;20069;-67
2023/10/18 08:55:22;;;;;;;8.73;5.38;;;9.10;99.90;;;;;;5033494;28;20037;-67
2023/10/18 08:57:50;;;;;;;6.45;5.00;;;9.10;99.90;;;;;;5033689;28;20099;-67
2023/10/18 09:02:53;;;;;;;8.43;5.05;;;9.30;99.90;;;;;;5020521;28;20076;-67
2023/10/18 09:05:24;;;;;;;7.03;4.95;;;9.30;99.90;;;;;;5033498;28;20029;-67
2023/10/18 09:07:51;;;;;;;8.75;5.13;;;9.40;99.90;;;;;;5030887;28;20026;-67
2023/10/18 09:10:33;;;;;;;6.05;4.68;;;9.50;99.90;;;;;;5022845;28;20598;-67
2023/10/18 09:16:04;;;;;;;;;;;9.60;99.90;;;;;;5033365;28;20116;-67
2023/10/18 09:18:30;;;;;;;4.88;4.18;;;9.60;99.90;;;;;;5032579;28;20381;-67
2023/10/18 09:23:40;;;;;;;4.90;3.58;;;9.80;99.90;;;;;;5023753;28;20050;-67
2023/10/18 09:26:10;;;;;;;6.40;4.20;;;9.90;99.90;;;;;;5030426;28;20021;-67
2023/10/18 09:28:37;;;;;;;7.22;4.68;;;10.00;99.90;;;;;;5033144;28;20572;-67
2023/10/18 09:31:22;;;;;;;5.75;4.00;;;10.00;99.90;;;;;;5027589;28;20524;-67
2023/10/18 09:33:56;;;;;;;8.40;4.63;;;10.10;99.90;;;;;;5014338;28;20068;-67
2023/10/18 09:36:25;;;;;;;7.80;4.78;;;10.20;99.90;;;;;;5033189;28;20029;-67
2023/10/18 09:38:55;;;;;;;5.10;3.92;;;10.30;99.80;;;;;;5029892;28;20107;-67
2023/10/18 09:41:21;;;;;;;7.07;3.65;;;10.50;99.70;;;;;;5023112;28;20040;-67
2023/10/18 09:43:48;;;;;;;4.63;3.38;;;10.60;99.60;;;;;;5031418;28;20017;-67
2023/10/18 09:46:15;;;;;;;5.60;4.07;;;10.70;99.50;;;;;;5031986;28;20022;-67
2023/10/18 09:48:43;;;;;;;7.05;5.70;;;10.80;99.30;;;;;;5031629;28;20492;-67
2023/10/18 09:51:11;;;;;;;5.55;4.00;;;10.90;99.10;;;;;;5032619;28;20390;-67
2023/10/18 09:53:48;;;;;;;5.90;4.60;;;11.10;99.00;;;;;;5030544;28;20020;-67
2023/10/18 09:56:16;;;;;;;4.90;3.50;;;11.10;98.20;;;;;;5029921;28;20048;-67
2023/10/18 09:58:44;;;;;;;5.53;3.70;;;11.20;98.10;;;;;;5030700;28;20033;-67
2023/10/18 10:01:30;;;;;;;5.82;4.10;;;11.30;98.10;;;;;;5031764;28;20425;-67
2023/10/18 10:03:56;;;;;;;4.95;3.22;;;11.40;97.50;;;;;;5012399;28;20390;-67
2023/10/18 10:06:27;;;;;;;6.60;3.58;;;11.50;97.70;;;;;;5033921;28;20049;-67
2023/10/18 10:09:13;;;;;;;5.22;3.40;;;11.70;97.40;;;;;;5029509;28;20022;-67
2023/10/18 10:11:44;;;;;;;5.07;3.20;;;11.90;97.30;;;;;;5035766;28;20393;-67
2023/10/18 10:14:17;;;;;;;7.03;3.95;;;12.10;97.10;;;;;;5032992;28;20018;-68
2023/10/18 10:16:52;;;;;;;4.93;3.53;;;12.30;96.40;;;;;;5026198;28;20474;-68
2023/10/18 10:19:28;;;;;;;5.00;3.40;;;12.50;96.10;;;;;;5035853;28;20478;-67
2023/10/18 10:22:04;;;;;;;7.20;3.80;;;12.80;95.40;;;;;;5024424;28;20014;-68
2023/10/18 10:24:35;;;;;;;5.45;3.20;;;13.10;95.00;;;;;;5034066;28;20025;-68
2023/10/18 10:32:54;;;;;;;4.63;3.00;;;14.10;94.20;;;;;;5021421;28;20022;-68
2023/10/18 10:35:24;;;;;;;4.80;2.78;;;14.40;93.70;;;;;;5039094;28;20032;-68
2023/10/18 10:37:49;;;;;;;;;;;14.70;93.70;;;;;;5033054;28;20019;-68
2023/10/18 10:43:02;;;;;;;5.10;3.72;;;15.00;92.10;;;;;;5030681;28;20028;-68
2023/10/18 10:45:41;;;;;;;6.28;3.88;;;15.20;91.20;;;;;;5029667;28;20017;-68
2023/10/18 10:51:13;;;;;;;4.63;2.83;;;15.40;89.90;;;;;;5024187;28;20025;-68
2023/10/18 10:53:54;;;;;;;4.25;3.00;;;15.70;90.20;;;;;;5027548;28;20049;-68
2023/10/18 10:56:28;;;;;;;5.32;2.80;;;16.10;88.90;;;;;;5030625;28;20477;-68
2023/10/18 10:59:03;;;;;;;3.83;2.85;;;16.40;88.90;;;;;;5037468;28;20053;-68
2023/10/18 11:01:39;;;;;;;4.15;2.47;;;16.90;88.10;;;;;;5031161;28;20048;-68
2023/10/18 11:04:28;;;;;;;5.07;2.92;;;17.20;86.90;;;;;;5031265;28;20362;-68
2023/10/18 11:07:00;;;;;;;2.80;2.20;;;17.40;85.10;;;;;;5024918;28;20039;-68
2023/10/18 11:09:34;;;;;;;4.32;2.53;;;17.70;85.20;;;;;;5038778;28;20523;-68
2023/10/18 11:12:04;;;;;;;4.60;2.50;;;17.90;84.40;;;;;;5031129;28;20021;-68
2023/10/18 11:14:35;;;;;;;6.22;2.88;;;18.10;82.90;;;;;;5029744;28;20025;-68
2023/10/18 11:19:43;;;;;;;3.58;2.78;;;18.40;78.60;;;;;;5030869;28;20033;-68
2023/10/18 11:22:19;;;;;;;3.13;2.28;;;18.50;77.10;;;;;;5031515;28;20029;-68
2023/10/18 11:24:51;;;;;;;3.88;2.70;;;18.60;76.70;;;;;;5018071;28;20032;-68
2023/10/18 11:27:21;;;;;;;5.47;2.50;;;18.70;75.80;;;;;;5011788;28;20060;-68
2023/10/18 11:29:52;;;;;;;4.07;2.33;;;18.90;75.20;;;;;;5031235;28;20112;-68
2023/10/18 11:32:20;;;;;;;4.40;2.83;;;19.10;74.90;;;;;;5029199;28;20037;-68
2023/10/18 11:34:46;;;;;;;4.38;2.60;;;19.20;73.50;;;;;;5019204;28;20091;-68
2023/10/18 11:37:34;;;;;;;3.53;2.25;;;19.40;73.50;;;;;;5017758;28;20033;-68
2023/10/18 11:40:14;;;;;;;4.45;2.53;;;19.60;73.40;;;;;;5031271;28;20057;-68
2023/10/18 11:43:08;;;;;;;3.60;2.35;;;19.80;73.70;;;;;;5028606;28;20067;-68
2023/10/18 11:45:36;;;;;;;4.80;2.70;;;20.20;72.90;;;;;;5029468;28;20025;-68
2023/10/18 11:48:02;;;;;;;7.85;4.10;;;20.30;72.30;;;;;;5022182;28;20025;-68
2023/10/18 11:50:47;;;;;;;6.03;3.78;;;20.10;66.90;;;;;;5030080;28;20230;-68
2023/10/18 11:53:15;;;;;;;4.68;2.67;;;19.80;67.20;;;;;;5033415;28;20037;-68
2023/10/18 11:55:56;;;;;;;6.80;3.90;;;19.60;68.40;;;;;;5028874;28;20026;-68
2023/10/18 11:58:27;;;;;;;4.32;3.03;;;19.50;66.50;;;;;;5022858;28;20050;-67
2023/10/18 12:01:05;;;;;;;4.80;2.90;;;19.50;68.10;;;;;;5035014;28;20041;-68
2023/10/18 12:03:33;;;;;;;4.20;3.10;;;19.80;68.20;;;;;;5021164;28;20055;-68
2023/10/18 12:06:00;;;;;;;4.40;2.53;;;20.10;66.80;;;;;;5034577;28;20026;-68
2023/10/18 12:08:30;;;;;;;5.22;3.50;;;20.40;67.00;;;;;;5034844;28;20022;-68
2023/10/18 12:10:57;;;;;;;4.15;2.50;;;20.40;64.60;;;;;;5033764;28;20037;-68
2023/10/18 12:13:24;;;;;;;5.07;2.50;;;20.50;65.70;;;;;;5033989;28;20455;-68
2023/10/18 12:15:50;;;;;;;4.63;3.00;;;20.80;66.40;;;;;;5033171;28;20033;-68
2023/10/18 12:18:16;;;;;;;5.45;3.05;;;21.00;66.20;;;;;;5021004;28;20018;-68
2023/10/18 12:20:45;;;;;;;3.92;2.70;;;21.20;66.20;;;;;;5015001;28;20532;-68
2023/10/18 12:23:21;;;;;;;3.50;2.72;;;21.40;66.40;;;;;;5020833;28;20017;-68
2023/10/18 12:25:48;;;;;;;4.18;2.60;;;21.60;65.00;;;;;;5019704;28;20041;-68
2023/10/18 12:28:17;;;;;;;5.75;3.22;;;21.60;64.50;;;;;;5026544;28;20053;-68
2023/10/18 12:30:44;;;;;;;3.97;2.60;;;21.70;64.10;;;;;;5030048;28;20032;-68
2023/10/18 12:33:22;;;;;;;3.30;2.33;;;21.80;64.30;;;;;;5032810;28;20053;-68
2023/10/18 12:35:48;;;;;;;7.28;2.67;;;22.00;64.30;;;;;;5029275;28;20026;-68
2023/10/18 12:38:15;;;;;;;5.40;2.58;;;22.10;63.80;;;;;;5025695;28;20393;-68
2023/10/18 12:40:58;;;;;;;4.68;2.70;;;22.30;64.00;;;;;;5032628;28;20025;-67
2023/10/18 12:43:24;;;;;;;3.97;3.00;;;22.50;62.50;;;;;;5033641;28;20026;-67
2023/10/18 12:45:50;;;;;;;6.00;3.42;;;22.50;62.60;;;;;;5026066;28;20117;-67
2023/10/18 12:48:22;;;;;;;5.60;3.08;;;22.60;61.60;;;;;;5028222;28;20100;-67
2023/10/18 12:50:52;;;;;;;5.47;3.08;;;22.60;61.10;;;;;;5033996;28;20026;-67
2023/10/18 12:55:57;;;;;;;4.53;3.08;;;22.10;61.20;;;;;;5034124;28;20034;-67
2023/10/18 12:58:28;;;;;;;4.88;3.28;;;22.20;61.10;;;;;;5032134;28;20061;-67
2023/10/18 13:00:55;;;;;;;3.80;3.17;;;22.30;60.20;;;;;;5033625;28;20021;-67
2023/10/18 13:03:22;;;;;;;4.35;2.40;;;22.40;59.90;;;;;;5019808;28;20481;-67
2023/10/18 13:05:52;;;;;;;3.97;2.65;;;22.60;59.90;;;;;;5021318;28;20526;-67
2023/10/18 13:08:24;;;;;;;5.38;3.03;;;23.00;59.30;;;;;;5033104;28;20060;-67
2023/10/18 13:13:34;;;;;;;4.80;3.15;;;23.90;57.50;;;;;;5033513;28;20029;-67
2023/10/18 13:16:00;;;;;;;4.50;2.85;;;24.30;56.60;;;;;;5032914;28;20032;-67
2023/10/18 13:18:26;;;;;;;4.85;3.00;;;24.30;56.00;;;;;;5033292;28;20033;-67
2023/10/18 13:20:54;;;;;;;5.20;3.13;;;24.40;56.00;;;;;;5019721;28;20072;-67
2023/10/18 13:23:27;;;;;;;5.40;2.67;;;24.50;55.20;;;;;;5033033;28;20072;-67
2023/10/18 13:25:55;;;;;;;4.32;2.92;;;24.50;55.80;;;;;;5019670;28;20084;-67
2023/10/18 13:31:04;;;;;;;4.43;2.90;;;25.10;55.60;;;;;;5026799;28;20029;-60
2023/10/18 13:33:33;;;;;;;5.18;3.42;;;25.20;54.80;;;;;;5029888;28;20030;-60
2023/10/18 13:35:58;;;;;;;3.58;2.78;;;25.20;54.10;;;;;;5031263;28;20026;-60
2023/10/18 13:38:24;;;;;;;5.18;2.78;;;25.00;54.50;;;;;;5032646;28;20441;-60
2023/10/18 13:40:50;;;;;;;4.45;3.05;;;24.70;54.40;;;;;;5031550;28;20029;-60
2023/10/18 13:43:17;;;;;;;4.50;3.10;;;24.50;54.50;;;;;;5032884;28;20493;-60
2023/10/18 13:45:45;;;;;;;5.47;2.92;;;24.20;54.60;;;;;;5032592;28;20096;-61
2023/10/18 13:48:12;;;;;;;4.25;2.55;;;24.10;54.70;;;;;;5031296;28;20083;-60
2023/10/18 13:50:40;;;;;;;5.32;3.63;;;24.00;54.90;;;;;;5020602;28;20017;-60
2023/10/18 13:53:08;;;;;;;5.63;2.70;;;23.70;55.30;;;;;;5031896;28;20080;-60
2023/10/18 13:55:33;;;;;;;3.97;2.78;;;23.50;55.40;;;;;;5032881;28;20053;-60
2023/10/18 13:57:59;;;;;;;3.88;2.60;;;23.40;55.80;;;;;;5030922;28;20088;-60